Van, Turkey
Current Conditions -  °F | °C
As of 2:50 PM on Friday 28 Nov 2014 (Local Time) from LTCI Reporting Station
Broken Clouds Broken Clouds  
Wind Chill: 32°   Ceiling: 3000
Heat Index: 36°   Visibility: 4mi
Dew Point: 32°   Wind: 5mph
Humidity: 87%   Direction: 100°E
Pressure: 30.12"   Gusts: NA
Location:  38.49°N, 43.4°E
Report Text: LTCI 281150Z 10004KT 6000 FEW015 BKN030 BKN070 02/00 Q1020 NOSIG
Loading
Personal Weather Stations






























Interactive Weather Map New forecast layout! Learn more

10-Day Weather Forecast

Advertisements
Track Severe Weather on mobile